sensor_id;sensor_type;location;lat;lon;timestamp;P1;durP1;ratioP1;P2;durP2;ratioP2
5646;SDS011;2845;48.626;9.362;2024-03-08T00:02:14;13.18;;;5.35;;
5646;SDS011;2845;48.626;9.362;2024-03-08T00:04:48;13.77;;;5.68;;
5646;SDS011;2845;48.626;9.362;2024-03-08T00:07:22;16.83;;;6.15;;
5646;SDS011;2845;48.626;9.362;2024-03-08T00:09:58;15.32;;;6.68;;
5646;SDS011;2845;48.626;9.362;2024-03-08T00:12:32;14.10;;;6.10;;
5646;SDS011;2845;48.626;9.362;2024-03-08T00:15:07;15.27;;;5.63;;
5646;SDS011;2845;48.626;9.362;2024-03-08T00:17:43;16.13;;;6.65;;
5646;SDS011;2845;48.626;9.362;2024-03-08T00:20:18;19.17;;;6.95;;
5646;SDS011;2845;48.626;9.362;2024-03-08T00:22:53;15.43;;;6.18;;
5646;SDS011;2845;48.626;9.362;2024-03-08T00:25:31;13.95;;;5.72;;
5646;SDS011;2845;48.626;9.362;2024-03-08T00:28:06;15.90;;;6.43;;
5646;SDS011;2845;48.626;9.362;2024-03-08T00:30:40;13.57;;;6.78;;
5646;SDS011;2845;48.626;9.362;2024-03-08T00:33:15;13.00;;;6.03;;
5646;SDS011;2845;48.626;9.362;2024-03-08T00:35:49;11.88;;;5.43;;
5646;SDS011;2845;48.626;9.362;2024-03-08T00:38:23;19.73;;;6.35;;
5646;SDS011;2845;48.626;9.362;2024-03-08T00:40:59;12.85;;;5.82;;
5646;SDS011;2845;48.626;9.362;2024-03-08T00:43:34;13.98;;;5.47;;
5646;SDS011;2845;48.626;9.362;2024-03-08T00:46:08;12.43;;;4.75;;
5646;SDS011;2845;48.626;9.362;2024-03-08T00:48:42;12.90;;;5.68;;
5646;SDS011;2845;48.626;9.362;2024-03-08T00:51:17;12.80;;;5.30;;
5646;SDS011;2845;48.626;9.362;2024-03-08T00:53:51;14.57;;;5.97;;
5646;SDS011;2845;48.626;9.362;2024-03-08T00:56:26;13.57;;;4.88;;
5646;SDS011;2845;48.626;9.362;2024-03-08T00:59:01;14.63;;;5.72;;
5646;SDS011;2845;48.626;9.362;2024-03-08T01:01:35;14.52;;;6.13;;
5646;SDS011;2845;48.626;9.362;2024-03-08T01:04:10;13.80;;;5.78;;
5646;SDS011;2845;48.626;9.362;2024-03-08T01:06:44;15.10;;;5.95;;
5646;SDS011;2845;48.626;9.362;2024-03-08T01:09:19;12.32;;;5.45;;
5646;SDS011;2845;48.626;9.362;2024-03-08T01:11:56;14.43;;;6.15;;
5646;SDS011;2845;48.626;9.362;2024-03-08T01:14:30;12.70;;;5.67;;
5646;SDS011;2845;48.626;9.362;2024-03-08T01:17:05;13.05;;;5.32;;
5646;SDS011;2845;48.626;9.362;2024-03-08T01:19:39;13.97;;;5.63;;
5646;SDS011;2845;48.626;9.362;2024-03-08T01:22:14;11.63;;;4.90;;
5646;SDS011;2845;48.626;9.362;2024-03-08T01:24:48;12.35;;;5.82;;
5646;SDS011;2845;48.626;9.362;2024-03-08T01:27:23;11.30;;;5.60;;
5646;SDS011;2845;48.626;9.362;2024-03-08T01:29:58;12.03;;;5.23;;
5646;SDS011;2845;48.626;9.362;2024-03-08T01:32:32;13.40;;;4.77;;
5646;SDS011;2845;48.626;9.362;2024-03-08T01:35:07;14.88;;;6.35;;
5646;SDS011;2845;48.626;9.362;2024-03-08T01:37:42;13.40;;;5.88;;
5646;SDS011;2845;48.626;9.362;2024-03-08T01:40:17;18.10;;;5.77;;
5646;SDS011;2845;48.626;9.362;2024-03-08T01:42:52;12.40;;;6.20;;
5646;SDS011;2845;48.626;9.362;2024-03-08T01:45:27;12.40;;;5.23;;
5646;SDS011;2845;48.626;9.362;2024-03-08T01:48:01;16.67;;;5.43;;
5646;SDS011;2845;48.626;9.362;2024-03-08T01:50:35;18.40;;;5.97;;
5646;SDS011;2845;48.626;9.362;2024-03-08T01:53:11;13.30;;;5.70;;
5646;SDS011;2845;48.626;9.362;2024-03-08T01:55:47;14.53;;;5.37;;
5646;SDS011;2845;48.626;9.362;2024-03-08T01:58:24;12.53;;;5.00;;
5646;SDS011;2845;48.626;9.362;2024-03-08T02:01:02;14.13;;;5.80;;
5646;SDS011;2845;48.626;9.362;2024-03-08T02:03:37;14.23;;;5.37;;
5646;SDS011;2845;48.626;9.362;2024-03-08T02:06:11;11.87;;;4.80;;
5646;SDS011;2845;48.626;9.362;2024-03-08T02:08:48;11.83;;;5.23;;
5646;SDS011;2845;48.626;9.362;2024-03-08T02:11:23;12.57;;;4.57;;
5646;SDS011;2845;48.626;9.362;2024-03-08T02:13:58;13.27;;;5.23;;
5646;SDS011;2845;48.626;9.362;2024-03-08T02:16:33;11.70;;;5.07;;
5646;SDS011;2845;48.626;9.362;2024-03-08T02:19:07;10.30;;;4.70;;
5646;SDS011;2845;48.626;9.362;2024-03-08T02:21:43;15.63;;;5.20;;
5646;SDS011;2845;48.626;9.362;2024-03-08T02:24:19;12.70;;;4.73;;
5646;SDS011;2845;48.626;9.362;2024-03-08T02:26:55;10.53;;;4.13;;
5646;SDS011;2845;48.626;9.362;2024-03-08T02:29:30;14.40;;;5.07;;
5646;SDS011;2845;48.626;9.362;2024-03-08T02:32:07;12.47;;;5.67;;
5646;SDS011;2845;48.626;9.362;2024-03-08T02:34:41;14.33;;;5.20;;
5646;SDS011;2845;48.626;9.362;2024-03-08T02:37:17;11.33;;;4.63;;
5646;SDS011;2845;48.626;9.362;2024-03-08T02:39:51;10.70;;;5.37;;
5646;SDS011;2845;48.626;9.362;2024-03-08T02:42:26;11.50;;;5.03;;
5646;SDS011;2845;48.626;9.362;2024-03-08T02:45:00;12.10;;;5.10;;
5646;SDS011;2845;48.626;9.362;2024-03-08T02:47:34;13.20;;;6.20;;
5646;SDS011;2845;48.626;9.362;2024-03-08T02:50:09;13.17;;;4.77;;
5646;SDS011;2845;48.626;9.362;2024-03-08T02:52:45;12.17;;;5.37;;
5646;SDS011;2845;48.626;9.362;2024-03-08T02:55:20;11.13;;;4.40;;
5646;SDS011;2845;48.626;9.362;2024-03-08T02:57:54;12.00;;;4.53;;
5646;SDS011;2845;48.626;9.362;2024-03-08T03:00:29;11.43;;;4.60;;
5646;SDS011;2845;48.626;9.362;2024-03-08T03:03:05;10.80;;;4.53;;
5646;SDS011;2845;48.626;9.362;2024-03-08T03:05:40;16.17;;;5.33;;
5646;SDS011;2845;48.626;9.362;2024-03-08T03:08:21;11.07;;;4.95;;
5646;SDS011;2845;48.626;9.362;2024-03-08T03:10:56;10.23;;;4.63;;
5646;SDS011;2845;48.626;9.362;2024-03-08T03:13:30;10.13;;;4.47;;
5646;SDS011;2845;48.626;9.362;2024-03-08T03:16:06;10.87;;;4.53;;
5646;SDS011;2845;48.626;9.362;2024-03-08T03:18:40;12.83;;;5.20;;
5646;SDS011;2845;48.626;9.362;2024-03-08T03:21:15;12.93;;;5.30;;
5646;SDS011;2845;48.626;9.362;2024-03-08T03:23:51;14.43;;;4.83;;
5646;SDS011;2845;48.626;9.362;2024-03-08T03:26:25;11.10;;;5.37;;
5646;SDS011;2845;48.626;9.362;2024-03-08T03:29:00;9.50;;;3.97;;
5646;SDS011;2845;48.626;9.362;2024-03-08T03:31:35;11.30;;;4.70;;
5646;SDS011;2845;48.626;9.362;2024-03-08T03:34:09;12.27;;;5.37;;
5646;SDS011;2845;48.626;9.362;2024-03-08T03:36:44;12.70;;;5.20;;
5646;SDS011;2845;48.626;9.362;2024-03-08T03:39:20;13.20;;;6.27;;
5646;SDS011;2845;48.626;9.362;2024-03-08T03:41:55;13.77;;;5.20;;
5646;SDS011;2845;48.626;9.362;2024-03-08T03:44:30;14.37;;;5.40;;
5646;SDS011;2845;48.626;9.362;2024-03-08T03:47:05;12.13;;;5.07;;
5646;SDS011;2845;48.626;9.362;2024-03-08T03:49:39;11.03;;;5.40;;
5646;SDS011;2845;48.626;9.362;2024-03-08T03:52:13;11.17;;;4.90;;
5646;SDS011;2845;48.626;9.362;2024-03-08T03:54:49;12.63;;;5.10;;
5646;SDS011;2845;48.626;9.362;2024-03-08T03:57:23;11.73;;;6.00;;
5646;SDS011;2845;48.626;9.362;2024-03-08T03:59:57;14.43;;;5.10;;
5646;SDS011;2845;48.626;9.362;2024-03-08T04:02:32;13.23;;;5.67;;
5646;SDS011;2845;48.626;9.362;2024-03-08T04:05:06;10.93;;;4.37;;
5646;SDS011;2845;48.626;9.362;2024-03-08T04:07:42;9.63;;;3.97;;
5646;SDS011;2845;48.626;9.362;2024-03-08T04:10:18;9.83;;;4.40;;
5646;SDS011;2845;48.626;9.362;2024-03-08T04:12:53;14.37;;;5.07;;
5646;SDS011;2845;48.626;9.362;2024-03-08T04:15:29;10.77;;;4.03;;
5646;SDS011;2845;48.626;9.362;2024-03-08T04:18:03;10.10;;;4.40;;
5646;SDS011;2845;48.626;9.362;2024-03-08T04:20:38;10.63;;;4.20;;
5646;SDS011;2845;48.626;9.362;2024-03-08T04:23:13;12.03;;;5.07;;
5646;SDS011;2845;48.626;9.362;2024-03-08T04:25:49;11.73;;;5.23;;
5646;SDS011;2845;48.626;9.362;2024-03-08T04:28:23;13.43;;;5.17;;
5646;SDS011;2845;48.626;9.362;2024-03-08T04:30:58;15.20;;;5.53;;
5646;SDS011;2845;48.626;9.362;2024-03-08T04:33:33;15.10;;;5.40;;
5646;SDS011;2845;48.626;9.362;2024-03-08T04:36:08;13.43;;;4.73;;
5646;SDS011;2845;48.626;9.362;2024-03-08T04:38:46;14.73;;;5.60;;
5646;SDS011;2845;48.626;9.362;2024-03-08T04:41:21;10.40;;;4.10;;
5646;SDS011;2845;48.626;9.362;2024-03-08T04:43:56;14.53;;;5.07;;
5646;SDS011;2845;48.626;9.362;2024-03-08T04:46:31;12.27;;;5.13;;
5646;SDS011;2845;48.626;9.362;2024-03-08T04:49:07;13.13;;;5.20;;
5646;SDS011;2845;48.626;9.362;2024-03-08T04:51:43;15.17;;;5.47;;
5646;SDS011;2845;48.626;9.362;2024-03-08T04:54:18;9.93;;;4.40;;
5646;SDS011;2845;48.626;9.362;2024-03-08T04:56:53;9.80;;;4.30;;
5646;SDS011;2845;48.626;9.362;2024-03-08T04:59:28;9.97;;;4.33;;
5646;SDS011;2845;48.626;9.362;2024-03-08T05:02:03;10.77;;;4.20;;
5646;SDS011;2845;48.626;9.362;2024-03-08T05:04:37;11.20;;;4.20;;
5646;SDS011;2845;48.626;9.362;2024-03-08T05:07:11;9.50;;;4.70;;
5646;SDS011;2845;48.626;9.362;2024-03-08T05:09:45;10.23;;;4.67;;
5646;SDS011;2845;48.626;9.362;2024-03-08T05:12:25;8.67;;;4.77;;
5646;SDS011;2845;48.626;9.362;2024-03-08T05:14:59;11.30;;;4.83;;
5646;SDS011;2845;48.626;9.362;2024-03-08T05:17:33;11.07;;;4.50;;
5646;SDS011;2845;48.626;9.362;2024-03-08T05:20:08;10.07;;;4.20;;
5646;SDS011;2845;48.626;9.362;2024-03-08T05:22:45;13.00;;;4.77;;
5646;SDS011;2845;48.626;9.362;2024-03-08T05:25:19;9.83;;;4.20;;
5646;SDS011;2845;48.626;9.362;2024-03-08T05:27:56;12.00;;;5.07;;
5646;SDS011;2845;48.626;9.362;2024-03-08T05:30:30;13.30;;;4.93;;
5646;SDS011;2845;48.626;9.362;2024-03-08T05:33:04;10.27;;;3.77;;
5646;SDS011;2845;48.626;9.362;2024-03-08T05:35:42;14.60;;;5.77;;
5646;SDS011;2845;48.626;9.362;2024-03-08T05:38:16;10.07;;;4.30;;
5646;SDS011;2845;48.626;9.362;2024-03-08T05:40:52;11.43;;;4.20;;
5646;SDS011;2845;48.626;9.362;2024-03-08T05:43:28;8.83;;;4.37;;
5646;SDS011;2845;48.626;9.362;2024-03-08T05:46:02;11.70;;;4.90;;
5646;SDS011;2845;48.626;9.362;2024-03-08T05:48:37;11.40;;;4.60;;
5646;SDS011;2845;48.626;9.362;2024-03-08T05:51:11;13.30;;;5.07;;
5646;SDS011;2845;48.626;9.362;2024-03-08T05:53:45;12.37;;;4.77;;
5646;SDS011;2845;48.626;9.362;2024-03-08T05:56:20;11.40;;;4.67;;
5646;SDS011;2845;48.626;9.362;2024-03-08T05:58:56;9.73;;;4.07;;
5646;SDS011;2845;48.626;9.362;2024-03-08T06:01:31;12.33;;;4.30;;
5646;SDS011;2845;48.626;9.362;2024-03-08T06:04:08;9.57;;;4.10;;
5646;SDS011;2845;48.626;9.362;2024-03-08T06:06:44;12.53;;;4.43;;
5646;SDS011;2845;48.626;9.362;2024-03-08T06:09:22;12.37;;;4.37;;
5646;SDS011;2845;48.626;9.362;2024-03-08T06:11:57;14.77;;;5.43;;
5646;SDS011;2845;48.626;9.362;2024-03-08T06:14:32;11.93;;;4.40;;
5646;SDS011;2845;48.626;9.362;2024-03-08T06:17:07;10.87;;;3.80;;
5646;SDS011;2845;48.626;9.362;2024-03-08T06:19:41;12.10;;;5.23;;
5646;SDS011;2845;48.626;9.362;2024-03-08T06:22:15;12.40;;;5.37;;
5646;SDS011;2845;48.626;9.362;2024-03-08T06:24:49;13.63;;;5.50;;
5646;SDS011;2845;48.626;9.362;2024-03-08T06:27:23;12.27;;;4.27;;
5646;SDS011;2845;48.626;9.362;2024-03-08T06:29:59;9.33;;;4.10;;
5646;SDS011;2845;48.626;9.362;2024-03-08T06:32:33;14.00;;;5.33;;
5646;SDS011;2845;48.626;9.362;2024-03-08T06:35:08;10.53;;;4.57;;
5646;SDS011;2845;48.626;9.362;2024-03-08T06:37:42;10.73;;;4.53;;
5646;SDS011;2845;48.626;9.362;2024-03-08T06:40:17;8.27;;;4.00;;
5646;SDS011;2845;48.626;9.362;2024-03-08T06:42:51;17.73;;;5.70;;
5646;SDS011;2845;48.626;9.362;2024-03-08T06:45:27;12.87;;;4.83;;
5646;SDS011;2845;48.626;9.362;2024-03-08T06:48:01;10.37;;;4.50;;
5646;SDS011;2845;48.626;9.362;2024-03-08T06:50:35;11.33;;;5.17;;
5646;SDS011;2845;48.626;9.362;2024-03-08T06:53:09;10.83;;;4.77;;
5646;SDS011;2845;48.626;9.362;2024-03-08T06:55:44;12.73;;;5.33;;
5646;SDS011;2845;48.626;9.362;2024-03-08T06:58:18;14.97;;;6.83;;
5646;SDS011;2845;48.626;9.362;2024-03-08T07:00:54;15.47;;;5.40;;
5646;SDS011;2845;48.626;9.362;2024-03-08T07:03:30;13.37;;;5.83;;
5646;SDS011;2845;48.626;9.362;2024-03-08T07:06:05;11.60;;;5.50;;
5646;SDS011;2845;48.626;9.362;2024-03-08T07:08:40;10.50;;;5.10;;
5646;SDS011;2845;48.626;9.362;2024-03-08T07:11:14;11.90;;;5.43;;
5646;SDS011;2845;48.626;9.362;2024-03-08T07:13:50;10.23;;;4.23;;
5646;SDS011;2845;48.626;9.362;2024-03-08T07:16:27;11.30;;;6.13;;
5646;SDS011;2845;48.626;9.362;2024-03-08T07:19:01;19.23;;;5.97;;
5646;SDS011;2845;48.626;9.362;2024-03-08T07:21:35;15.07;;;6.37;;
5646;SDS011;2845;48.626;9.362;2024-03-08T07:24:10;16.98;;;6.45;;
5646;SDS011;2845;48.626;9.362;2024-03-08T07:27:00;14.07;;;6.50;;
5646;SDS011;2845;48.626;9.362;2024-03-08T07:29:34;15.13;;;6.63;;
5646;SDS011;2845;48.626;9.362;2024-03-08T07:32:10;12.70;;;5.68;;
5646;SDS011;2845;48.626;9.362;2024-03-08T07:34:53;16.33;;;6.10;;
5646;SDS011;2845;48.626;9.362;2024-03-08T07:37:27;21.02;;;7.90;;
5646;SDS011;2845;48.626;9.362;2024-03-08T07:40:01;19.30;;;7.30;;
5646;SDS011;2845;48.626;9.362;2024-03-08T07:42:36;21.50;;;8.50;;
5646;SDS011;2845;48.626;9.362;2024-03-08T07:45:10;15.60;;;8.13;;
5646;SDS011;2845;48.626;9.362;2024-03-08T07:47:46;18.80;;;7.45;;
5646;SDS011;2845;48.626;9.362;2024-03-08T07:50:20;18.95;;;7.25;;
5646;SDS011;2845;48.626;9.362;2024-03-08T07:52:55;15.70;;;7.38;;
5646;SDS011;2845;48.626;9.362;2024-03-08T07:55:29;18.08;;;6.55;;
5646;SDS011;2845;48.626;9.362;2024-03-08T07:58:04;13.85;;;6.88;;
5646;SDS011;2845;48.626;9.362;2024-03-08T08:00:38;14.70;;;7.75;;
5646;SDS011;2845;48.626;9.362;2024-03-08T08:03:16;15.52;;;7.70;;
5646;SDS011;2845;48.626;9.362;2024-03-08T08:05:53;13.80;;;6.22;;
5646;SDS011;2845;48.626;9.362;2024-03-08T08:08:27;15.50;;;6.22;;
5646;SDS011;2845;48.626;9.362;2024-03-08T08:11:02;17.60;;;6.85;;
5646;SDS011;2845;48.626;9.362;2024-03-08T08:13:37;16.45;;;6.60;;
5646;SDS011;2845;48.626;9.362;2024-03-08T08:16:11;17.00;;;7.32;;
5646;SDS011;2845;48.626;9.362;2024-03-08T08:18:48;19.42;;;7.28;;
5646;SDS011;2845;48.626;9.362;2024-03-08T08:21:22;17.50;;;7.70;;
5646;SDS011;2845;48.626;9.362;2024-03-08T08:23:58;18.70;;;7.55;;
5646;SDS011;2845;48.626;9.362;2024-03-08T08:26:32;17.33;;;7.40;;
5646;SDS011;2845;48.626;9.362;2024-03-08T08:29:11;15.50;;;7.63;;
5646;SDS011;2845;48.626;9.362;2024-03-08T08:31:46;15.93;;;7.25;;
5646;SDS011;2845;48.626;9.362;2024-03-08T08:34:23;17.83;;;6.75;;
5646;SDS011;2845;48.626;9.362;2024-03-08T08:36:58;18.52;;;7.43;;
5646;SDS011;2845;48.626;9.362;2024-03-08T08:39:33;12.68;;;5.95;;
5646;SDS011;2845;48.626;9.362;2024-03-08T08:42:07;11.95;;;5.50;;
5646;SDS011;2845;48.626;9.362;2024-03-08T08:44:41;11.82;;;5.55;;
5646;SDS011;2845;48.626;9.362;2024-03-08T08:47:15;12.45;;;5.28;;
5646;SDS011;2845;48.626;9.362;2024-03-08T08:49:52;11.57;;;5.90;;
5646;SDS011;2845;48.626;9.362;2024-03-08T08:52:26;12.02;;;5.18;;
5646;SDS011;2845;48.626;9.362;2024-03-08T08:55:01;11.98;;;4.65;;
5646;SDS011;2845;48.626;9.362;2024-03-08T08:57:37;11.35;;;4.38;;
5646;SDS011;2845;48.626;9.362;2024-03-08T09:00:12;12.07;;;4.82;;
5646;SDS011;2845;48.626;9.362;2024-03-08T09:02:48;10.77;;;4.70;;
5646;SDS011;2845;48.626;9.362;2024-03-08T09:05:24;12.98;;;4.63;;
5646;SDS011;2845;48.626;9.362;2024-03-08T09:07:59;11.05;;;4.75;;
5646;SDS011;2845;48.626;9.362;2024-03-08T09:10:33;11.93;;;4.07;;
5646;SDS011;2845;48.626;9.362;2024-03-08T09:13:07;9.30;;;4.53;;
5646;SDS011;2845;48.626;9.362;2024-03-08T09:15:49;12.40;;;5.05;;
5646;SDS011;2845;48.626;9.362;2024-03-08T09:18:26;10.00;;;3.97;;
5646;SDS011;2845;48.626;9.362;2024-03-08T09:21:01;12.48;;;5.78;;
5646;SDS011;2845;48.626;9.362;2024-03-08T09:23:37;10.82;;;4.63;;
5646;SDS011;2845;48.626;9.362;2024-03-08T09:26:12;11.32;;;4.47;;
5646;SDS011;2845;48.626;9.362;2024-03-08T09:28:59;10.35;;;4.75;;
5646;SDS011;2845;48.626;9.362;2024-03-08T09:31:33;11.00;;;5.05;;
5646;SDS011;2845;48.626;9.362;2024-03-08T09:34:07;11.65;;;4.88;;
5646;SDS011;2845;48.626;9.362;2024-03-08T09:36:52;13.25;;;5.03;;
5646;SDS011;2845;48.626;9.362;2024-03-08T09:39:26;9.98;;;4.50;;
5646;SDS011;2845;48.626;9.362;2024-03-08T09:42:04;11.75;;;5.30;;
5646;SDS011;2845;48.626;9.362;2024-03-08T09:44:38;10.07;;;4.35;;
5646;SDS011;2845;48.626;9.362;2024-03-08T09:47:13;12.15;;;5.07;;
5646;SDS011;2845;48.626;9.362;2024-03-08T09:49:48;10.65;;;4.82;;
5646;SDS011;2845;48.626;9.362;2024-03-08T09:52:24;12.57;;;5.03;;
5646;SDS011;2845;48.626;9.362;2024-03-08T09:54:59;14.95;;;5.40;;
5646;SDS011;2845;48.626;9.362;2024-03-08T09:57:34;12.77;;;5.15;;
5646;SDS011;2845;48.626;9.362;2024-03-08T10:00:10;10.30;;;4.45;;
5646;SDS011;2845;48.626;9.362;2024-03-08T10:03:00;11.50;;;4.78;;
5646;SDS011;2845;48.626;9.362;2024-03-08T10:05:35;11.00;;;5.28;;
5646;SDS011;2845;48.626;9.362;2024-03-08T10:08:11;8.73;;;4.80;;
5646;SDS011;2845;48.626;9.362;2024-03-08T10:10:45;12.80;;;4.88;;
5646;SDS011;2845;48.626;9.362;2024-03-08T10:13:19;9.98;;;4.57;;
5646;SDS011;2845;48.626;9.362;2024-03-08T10:15:54;13.15;;;5.07;;
5646;SDS011;2845;48.626;9.362;2024-03-08T10:18:29;11.48;;;5.50;;
5646;SDS011;2845;48.626;9.362;2024-03-08T10:21:03;10.48;;;4.63;;
5646;SDS011;2845;48.626;9.362;2024-03-08T10:23:41;8.77;;;4.70;;
5646;SDS011;2845;48.626;9.362;2024-03-08T10:26:16;10.88;;;4.75;;
5646;SDS011;2845;48.626;9.362;2024-03-08T10:28:53;10.63;;;4.90;;
5646;SDS011;2845;48.626;9.362;2024-03-08T10:31:27;10.73;;;4.50;;
5646;SDS011;2845;48.626;9.362;2024-03-08T10:34:02;10.55;;;5.10;;
5646;SDS011;2845;48.626;9.362;2024-03-08T10:36:37;9.32;;;4.68;;
5646;SDS011;2845;48.626;9.362;2024-03-08T10:39:17;12.57;;;5.05;;
5646;SDS011;2845;48.626;9.362;2024-03-08T10:41:56;10.38;;;4.80;;
5646;SDS011;2845;48.626;9.362;2024-03-08T10:44:36;10.30;;;4.63;;
5646;SDS011;2845;48.626;9.362;2024-03-08T10:47:23;9.85;;;4.80;;
5646;SDS011;2845;48.626;9.362;2024-03-08T10:50:07;12.05;;;5.57;;
5646;SDS011;2845;48.626;9.362;2024-03-08T10:52:49;13.35;;;5.47;;
5646;SDS011;2845;48.626;9.362;2024-03-08T10:55:25;9.10;;;4.28;;
5646;SDS011;2845;48.626;9.362;2024-03-08T10:58:02;12.73;;;5.18;;
5646;SDS011;2845;48.626;9.362;2024-03-08T11:00:37;9.45;;;4.30;;
5646;SDS011;2845;48.626;9.362;2024-03-08T11:06:22;14.25;;;5.13;;
5646;SDS011;2845;48.626;9.362;2024-03-08T11:09:08;10.10;;;4.72;;
5646;SDS011;2845;48.626;9.362;2024-03-08T11:11:50;9.63;;;4.43;;
5646;SDS011;2845;48.626;9.362;2024-03-08T11:17:21;9.77;;;4.63;;
5646;SDS011;2845;48.626;9.362;2024-03-08T11:20:00;12.65;;;5.68;;
5646;SDS011;2845;48.626;9.362;2024-03-08T11:22:37;10.48;;;5.07;;
5646;SDS011;2845;48.626;9.362;2024-03-08T11:28:13;12.48;;;5.43;;
5646;SDS011;2845;48.626;9.362;2024-03-08T11:33:57;13.77;;;5.40;;
5646;SDS011;2845;48.626;9.362;2024-03-08T11:36:32;11.13;;;5.75;;
5646;SDS011;2845;48.626;9.362;2024-03-08T11:39:09;12.38;;;4.78;;
5646;SDS011;2845;48.626;9.362;2024-03-08T11:41:47;11.50;;;5.00;;
5646;SDS011;2845;48.626;9.362;2024-03-08T11:44:24;13.63;;;5.75;;
5646;SDS011;2845;48.626;9.362;2024-03-08T11:47:00;11.88;;;5.60;;
5646;SDS011;2845;48.626;9.362;2024-03-08T11:49:36;10.60;;;4.90;;
5646;SDS011;2845;48.626;9.362;2024-03-08T11:52:10;12.98;;;6.03;;
5646;SDS011;2845;48.626;9.362;2024-03-08T11:54:49;14.70;;;5.95;;
5646;SDS011;2845;48.626;9.362;2024-03-08T11:57:26;12.45;;;5.22;;
5646;SDS011;2845;48.626;9.362;2024-03-08T12:00:03;10.18;;;4.93;;
5646;SDS011;2845;48.626;9.362;2024-03-08T12:02:39;13.02;;;5.72;;
5646;SDS011;2845;48.626;9.362;2024-03-08T12:05:15;13.23;;;5.07;;
5646;SDS011;2845;48.626;9.362;2024-03-08T12:07:55;10.10;;;5.25;;
5646;SDS011;2845;48.626;9.362;2024-03-08T12:10:31;11.40;;;5.80;;
5646;SDS011;2845;48.626;9.362;2024-03-08T12:13:07;12.90;;;5.35;;
5646;SDS011;2845;48.626;9.362;2024-03-08T12:15:46;13.40;;;5.97;;
5646;SDS011;2845;48.626;9.362;2024-03-08T12:18:20;13.50;;;5.10;;
5646;SDS011;2845;48.626;9.362;2024-03-08T12:21:03;13.13;;;4.82;;
5646;SDS011;2845;48.626;9.362;2024-03-08T12:23:39;10.45;;;5.18;;
5646;SDS011;2845;48.626;9.362;2024-03-08T12:26:14;13.00;;;4.78;;
5646;SDS011;2845;48.626;9.362;2024-03-08T12:28:50;13.00;;;5.50;;
5646;SDS011;2845;48.626;9.362;2024-03-08T12:31:26;13.95;;;5.63;;
5646;SDS011;2845;48.626;9.362;2024-03-08T12:34:01;13.68;;;5.45;;
5646;SDS011;2845;48.626;9.362;2024-03-08T12:36:35;12.35;;;5.55;;
5646;SDS011;2845;48.626;9.362;2024-03-08T12:39:10;13.13;;;6.05;;
5646;SDS011;2845;48.626;9.362;2024-03-08T12:41:45;13.35;;;5.00;;
5646;SDS011;2845;48.626;9.362;2024-03-08T12:44:20;13.63;;;5.80;;
5646;SDS011;2845;48.626;9.362;2024-03-08T12:46:56;16.33;;;5.90;;
5646;SDS011;2845;48.626;9.362;2024-03-08T12:49:31;13.52;;;4.53;;
5646;SDS011;2845;48.626;9.362;2024-03-08T12:52:08;11.57;;;4.88;;
5646;SDS011;2845;48.626;9.362;2024-03-08T12:54:44;11.13;;;4.82;;
5646;SDS011;2845;48.626;9.362;2024-03-08T12:57:19;16.55;;;6.25;;
5646;SDS011;2845;48.626;9.362;2024-03-08T12:59:53;14.00;;;6.15;;
5646;SDS011;2845;48.626;9.362;2024-03-08T13:02:29;12.23;;;5.28;;
5646;SDS011;2845;48.626;9.362;2024-03-08T13:05:05;12.75;;;5.70;;
5646;SDS011;2845;48.626;9.362;2024-03-08T13:07:41;14.23;;;6.05;;
5646;SDS011;2845;48.626;9.362;2024-03-08T13:10:19;12.88;;;5.90;;
5646;SDS011;2845;48.626;9.362;2024-03-08T13:12:55;17.27;;;6.18;;
5646;SDS011;2845;48.626;9.362;2024-03-08T13:15:29;14.90;;;5.47;;
5646;SDS011;2845;48.626;9.362;2024-03-08T13:18:05;12.50;;;5.13;;
5646;SDS011;2845;48.626;9.362;2024-03-08T13:20:41;11.40;;;4.78;;
5646;SDS011;2845;48.626;9.362;2024-03-08T13:23:21;10.82;;;4.90;;
5646;SDS011;2845;48.626;9.362;2024-03-08T13:25:55;13.32;;;5.43;;
5646;SDS011;2845;48.626;9.362;2024-03-08T13:28:29;12.07;;;5.13;;
5646;SDS011;2845;48.626;9.362;2024-03-08T13:31:04;13.82;;;5.88;;
5646;SDS011;2845;48.626;9.362;2024-03-08T13:33:41;14.43;;;5.40;;
5646;SDS011;2845;48.626;9.362;2024-03-08T13:36:18;11.98;;;5.53;;
5646;SDS011;2845;48.626;9.362;2024-03-08T13:38:53;14.77;;;5.85;;
5646;SDS011;2845;48.626;9.362;2024-03-08T13:41:27;12.13;;;5.22;;
5646;SDS011;2845;48.626;9.362;2024-03-08T13:44:05;12.57;;;4.97;;
5646;SDS011;2845;48.626;9.362;2024-03-08T13:46:39;11.57;;;5.50;;
5646;SDS011;2845;48.626;9.362;2024-03-08T13:49:15;14.07;;;5.13;;
5646;SDS011;2845;48.626;9.362;2024-03-08T13:51:49;14.68;;;5.32;;
5646;SDS011;2845;48.626;9.362;2024-03-08T13:54:24;12.88;;;5.55;;
5646;SDS011;2845;48.626;9.362;2024-03-08T13:56:59;12.18;;;5.05;;
5646;SDS011;2845;48.626;9.362;2024-03-08T13:59:35;12.02;;;5.65;;
5646;SDS011;2845;48.626;9.362;2024-03-08T14:02:10;10.13;;;5.32;;
5646;SDS011;2845;48.626;9.362;2024-03-08T14:04:47;15.32;;;5.35;;
5646;SDS011;2845;48.626;9.362;2024-03-08T14:07:22;11.35;;;5.47;;
5646;SDS011;2845;48.626;9.362;2024-03-08T14:09:56;13.55;;;5.88;;
5646;SDS011;2845;48.626;9.362;2024-03-08T14:12:31;10.68;;;5.13;;
5646;SDS011;2845;48.626;9.362;2024-03-08T14:15:05;10.80;;;5.88;;
5646;SDS011;2845;48.626;9.362;2024-03-08T14:17:40;13.85;;;5.85;;
5646;SDS011;2845;48.626;9.362;2024-03-08T14:20:17;10.85;;;5.68;;
5646;SDS011;2845;48.626;9.362;2024-03-08T14:22:51;15.43;;;6.35;;
5646;SDS011;2845;48.626;9.362;2024-03-08T14:25:25;16.95;;;6.10;;
5646;SDS011;2845;48.626;9.362;2024-03-08T14:28:02;12.82;;;6.10;;
5646;SDS011;2845;48.626;9.362;2024-03-08T14:30:39;13.50;;;6.00;;
5646;SDS011;2845;48.626;9.362;2024-03-08T14:33:15;12.50;;;5.05;;
5646;SDS011;2845;48.626;9.362;2024-03-08T14:35:50;12.35;;;5.60;;
5646;SDS011;2845;48.626;9.362;2024-03-08T14:38:24;14.68;;;5.90;;
5646;SDS011;2845;48.626;9.362;2024-03-08T14:41:02;10.32;;;4.93;;
5646;SDS011;2845;48.626;9.362;2024-03-08T14:43:39;11.85;;;5.47;;
5646;SDS011;2845;48.626;9.362;2024-03-08T14:46:17;16.55;;;6.00;;
5646;SDS011;2845;48.626;9.362;2024-03-08T14:48:53;14.35;;;5.88;;
5646;SDS011;2845;48.626;9.362;2024-03-08T14:51:28;13.93;;;5.95;;
5646;SDS011;2845;48.626;9.362;2024-03-08T14:54:03;15.90;;;5.68;;
5646;SDS011;2845;48.626;9.362;2024-03-08T14:56:38;12.57;;;6.05;;
5646;SDS011;2845;48.626;9.362;2024-03-08T14:59:13;14.98;;;6.35;;
5646;SDS011;2845;48.626;9.362;2024-03-08T15:01:47;13.18;;;4.85;;
5646;SDS011;2845;48.626;9.362;2024-03-08T15:04:21;13.57;;;5.47;;
5646;SDS011;2845;48.626;9.362;2024-03-08T15:06:57;12.95;;;5.70;;
5646;SDS011;2845;48.626;9.362;2024-03-08T15:09:31;16.08;;;6.30;;
5646;SDS011;2845;48.626;9.362;2024-03-08T15:12:11;14.13;;;6.68;;
5646;SDS011;2845;48.626;9.362;2024-03-08T15:14:47;15.95;;;5.80;;
5646;SDS011;2845;48.626;9.362;2024-03-08T15:17:23;14.18;;;5.82;;
5646;SDS011;2845;48.626;9.362;2024-03-08T15:19:57;14.30;;;7.20;;
5646;SDS011;2845;48.626;9.362;2024-03-08T15:22:33;14.20;;;6.03;;
5646;SDS011;2845;48.626;9.362;2024-03-08T15:25:07;16.98;;;6.25;;
5646;SDS011;2845;48.626;9.362;2024-03-08T15:27:43;11.18;;;5.88;;
5646;SDS011;2845;48.626;9.362;2024-03-08T15:30:18;13.05;;;6.05;;
5646;SDS011;2845;48.626;9.362;2024-03-08T15:32:54;12.43;;;5.03;;
5646;SDS011;2845;48.626;9.362;2024-03-08T15:35:30;14.88;;;6.50;;
5646;SDS011;2845;48.626;9.362;2024-03-08T15:38:05;15.35;;;5.63;;
5646;SDS011;2845;48.626;9.362;2024-03-08T15:40:40;15.95;;;6.43;;
5646;SDS011;2845;48.626;9.362;2024-03-08T15:43:14;14.80;;;5.72;;
5646;SDS011;2845;48.626;9.362;2024-03-08T15:45:48;12.77;;;5.38;;
5646;SDS011;2845;48.626;9.362;2024-03-08T15:48:23;14.40;;;6.07;;
5646;SDS011;2845;48.626;9.362;2024-03-08T15:50:57;12.25;;;5.22;;
5646;SDS011;2845;48.626;9.362;2024-03-08T15:53:35;11.07;;;5.53;;
5646;SDS011;2845;48.626;9.362;2024-03-08T15:56:10;13.02;;;5.85;;
5646;SDS011;2845;48.626;9.362;2024-03-08T15:58:46;13.18;;;5.57;;
5646;SDS011;2845;48.626;9.362;2024-03-08T16:01:21;14.02;;;6.25;;
5646;SDS011;2845;48.626;9.362;2024-03-08T16:03:56;15.82;;;6.75;;
5646;SDS011;2845;48.626;9.362;2024-03-08T16:06:31;15.25;;;6.57;;